Time;durP1;ratioP1;P1;durP2;ratioP2;P2;SDS_P1;SDS_P2;PMS_P1;PMS_P2;Temp;Humidity;BMP_temperature;BMP_pressure;BME280_temperature;BME280_humidity;BME280_pressure;Samples;Min_cycle;Max_cycle;Signal;HPM_P1;HPM_P2
2021/06/14 00:02:49;;;;;;;4.80;2.85;;;;;;;9.68;76.37;99385.16;262601;1089;23726;-73
2021/06/14 00:08:40;;;;;;;6.05;2.70;;;;;;;9.66;76.79;99387.31;262639;1089;22730;-73
2021/06/14 00:14:15;;;;;;;8.17;3.10;;;;;;;9.63;76.60;99383.30;262597;1089;25967;-71
2021/06/14 00:20:51;;;;;;;5.57;2.33;;;;;;;9.64;77.04;99381.41;262973;1090;22809;-72
2021/06/14 00:27:36;;;;;;;8.57;2.77;;;;;;;9.61;76.79;99384.63;262827;1088;22782;-72
2021/06/14 00:33:45;;;;;;;6.77;2.90;;;;;;;9.53;77.09;99377.95;262309;1090;22827;-72
2021/06/14 00:39:33;;;;;;;3.63;2.57;;;;;;;9.46;77.00;99375.53;261976;1089;22863;-72
2021/06/14 00:44:56;;;;;;;5.53;3.00;;;;;;;9.44;77.51;99382.20;262910;1088;22908;-73
2021/06/14 00:51:06;;;;;;;;;;;;;;;;;;;;;
2021/06/14 00:56:38;;;;;;;;;;;;;;;;;;;;;
2021/06/14 01:02:55;;;;;;;3.37;2.53;;;;;;;9.32;77.62;99375.24;262765;1090;22817;-72
2021/06/14 01:08:32;;;;;;;6.10;2.93;;;;;;;9.25;78.06;99377.38;262011;1089;26015;-72
2021/06/14 01:15:05;;;;;;;;;;;;;;;;;;;;;
2021/06/14 01:21:34;;;;;;;5.47;2.90;;;;;;;9.01;78.09;99385.87;262584;1088;22818;-72
2021/06/14 01:28:02;;;;;;;4.90;3.23;;;;;;;8.85;77.67;99382.32;261952;1090;24533;-72
2021/06/14 01:34:31;;;;;;;;;;;;;;;;;;;;;
2021/06/14 01:40:42;;;;;;;;;;;;;;;;;;;;;
2021/06/14 01:47:20;;;;;;;;;;;;;;;;;;;;;
2021/06/14 02:00:22;;;;;;;6.40;3.70;;;;;;;8.23;79.22;99375.87;262601;1090;22783;-72
2021/06/14 02:07:12;;;;;;;;;;;;;;;;;;;;;
2021/06/14 02:13:54;;;;;;;6.63;3.17;;;;;;;8.22;79.66;99374.25;262471;1089;22810;-72
2021/06/14 02:19:59;;;;;;;4.60;3.57;;;;;;;8.20;79.63;99377.18;262415;1089;22807;-72
2021/06/14 02:26:21;;;;;;;7.73;3.63;;;;;;;8.21;80.33;99376.13;262418;1089;23383;-72
2021/06/14 02:32:25;;;;;;;5.73;3.70;;;;;;;8.13;79.96;99370.45;262766;1090;22782;-72
2021/06/14 02:38:25;;;;;;;;;;;;;;;;;;;;;
2021/06/14 02:44:50;;;;;;;7.97;3.90;;;;;;;7.89;80.27;99378.85;262734;1089;26302;-73
2021/06/14 02:51:16;;;;;;;6.93;3.88;;;;;;;7.83;80.58;99374.52;262667;1090;22786;-72
2021/06/14 02:57:28;;;;;;;8.73;4.37;;;;;;;7.80;80.64;99375.03;262510;1090;26283;-72
2021/06/14 03:03:53;;;;;;;;;;;;;;;;;;;;;
2021/06/14 03:10:36;;;;;;;9.40;4.40;;;;;;;7.84;80.73;99386.80;262678;1089;21585;-73
2021/06/14 03:16:39;;;;;;;6.97;4.30;;;;;;;7.90;80.93;99382.31;262464;1089;22808;-72
2021/06/14 03:22:53;;;;;;;8.27;3.53;;;;;;;8.05;81.30;99388.55;262548;1090;27549;-72
2021/06/14 03:28:52;;;;;;;11.40;4.10;;;;;;;8.43;80.76;99390.39;261891;1088;28229;-71
2021/06/14 03:34:33;;;;;;;;;;;;;;;;;;;;;
2021/06/14 03:40:51;;;;;;;8.93;4.20;;;;;;;9.12;80.05;99404.59;262599;1089;26236;-73
2021/06/14 03:47:51;;;;;;;14.47;7.73;;;;;;;9.61;78.82;99393.44;262566;1090;22869;-72
2021/06/14 03:54:39;;;;;;;;;;;;;;;;;;;;;
2021/06/14 04:01:21;;;;;;;13.35;9.15;;;;;;;10.77;77.28;99403.50;262425;1090;22798;-72
2021/06/14 04:07:32;;;;;;;16.60;12.80;;;;;;;11.12;76.17;99398.23;262654;1090;22831;-72
2021/06/14 04:13:35;;;;;;;;;;;;;;;;;;;;;
2021/06/14 04:26:03;;;;;;;;;;;;;;;;;;;;;
2021/06/14 04:32:50;;;;;;;;;;;;;;;;;;;;;
2021/06/14 04:39:47;;;;;;;;;;;;;;;;;;;;;
2021/06/14 04:46:15;;;;;;;9.60;4.83;;;;;;;11.03;77.42;99410.63;262502;1090;26765;-72
2021/06/14 04:53:03;;;;;;;9.75;4.50;;;;;;;11.16;77.40;99411.89;262758;1088;22800;-72
2021/06/14 05:06:32;;;;;;;5.63;3.90;;;;;;;11.53;77.47;99407.91;262046;1090;27619;-72
2021/06/14 05:19:48;;;;;;;8.30;4.40;;;;;;;11.98;77.46;99409.47;262631;1089;22785;-72
2021/06/14 05:26:02;;;;;;;7.75;4.60;;;;;;;12.23;77.00;99401.48;262800;1089;26317;-74
2021/06/14 05:31:41;;;;;;;6.55;4.70;;;;;;;12.40;76.86;99409.89;262493;1089;22817;-72
2021/06/14 05:37:57;;;;;;;7.63;3.83;;;;;;;12.54;76.02;99407.33;262591;1090;22916;-75
2021/06/14 05:49:43;;;;;;;;;;;;;;;;;;;;;
2021/06/14 05:56:17;;;;;;;;;;;;;;;;;;;;;
2021/06/14 06:02:12;;;;;;;9.93;4.78;;;;;;;13.05;74.80;99405.90;263687;1090;22782;-73
2021/06/14 06:08:17;;;;;;;6.27;3.63;;;;;;;13.24;74.17;99403.23;263628;1090;22819;-73
2021/06/14 06:13:53;;;;;;;;;;;;;;;;;;;;;
2021/06/14 06:19:12;;;;;;;7.10;4.80;;;;;;;13.47;73.41;99404.30;263130;1090;22963;-73
2021/06/14 06:24:51;;;;;;;;;;;;;;;;;;;;;
2021/06/14 06:31:02;;;;;;;6.13;4.13;;;;;;;13.78;72.67;99403.82;262939;1089;23027;-73
2021/06/14 06:37:11;;;;;;;;;;;;;;;;;;;;;
2021/06/14 06:42:57;;;;;;;;;;;;;;;;;;;;;
2021/06/14 06:48:46;;;;;;;10.40;4.75;;;;;;;14.19;71.45;99403.12;262981;1090;22786;-74
2021/06/14 06:54:47;;;;;;;6.33;3.70;;;;;;;14.41;71.06;99398.97;262995;1090;22808;-73
2021/06/14 07:08:14;;;;;;;9.00;5.40;;;;;;;14.88;69.86;99396.18;262996;1089;22819;-73
2021/06/14 07:14:59;;;;;;;10.80;4.70;;;;;;;15.12;69.09;99390.53;263317;1090;22873;-74
2021/06/14 07:21:05;;;;;;;7.05;4.53;;;;;;;15.32;68.62;99393.89;263492;1089;23196;-72
2021/06/14 07:27:37;;;;;;;;;;;;;;;;;;;;;
2021/06/14 07:34:08;;;;;;;;;;;;;;;;;;;;;
2021/06/14 07:40:16;;;;;;;6.75;4.15;;;;;;;16.03;65.65;99396.83;264834;1089;22797;-72
2021/06/14 07:46:14;;;;;;;7.95;4.15;;;;;;;16.35;65.42;99384.08;263161;1090;22870;-72
2021/06/14 07:51:24;;;;;;;8.35;4.00;;;;;;;16.73;64.28;99380.89;262968;1089;22816;-72
2021/06/14 07:56:44;;;;;;;5.30;4.00;;;;;;;17.13;62.34;99382.73;262742;1090;26596;-72
2021/06/14 08:01:55;;;;;;;5.98;4.18;;;;;;;16.99;61.57;99388.28;263245;1089;24435;-72
2021/06/14 08:07:03;;;;;;;6.60;4.30;;;;;;;16.92;60.93;99382.55;262199;1089;22869;-72
2021/06/14 08:12:25;;;;;;;5.38;3.78;;;;;;;17.05;60.49;99391.64;263061;1089;22930;-72
2021/06/14 08:17:36;;;;;;;8.25;3.70;;;;;;;17.34;59.57;99392.95;263166;1089;22910;-72
2021/06/14 08:25:03;;;;;;;6.40;3.30;;;;;;;17.47;57.41;99399.31;263075;1090;23086;-72
2021/06/14 08:28:23;;;;;;;6.55;3.50;;;;;;;17.23;57.80;99384.34;263068;1088;22833;-72
2021/06/14 08:33:35;;;;;;;6.27;3.90;;;;;;;17.25;58.23;99373.97;262816;1090;22867;-73
2021/06/14 08:39:01;;;;;;;7.60;3.10;;;;;;;17.39;57.35;99373.81;262952;1089;22807;-73
2021/06/14 08:44:35;;;;;;;5.30;3.40;;;;;;;17.54;55.97;99375.25;263198;1088;22803;-72
2021/06/14 08:49:44;;;;;;;5.10;3.20;;;;;;;17.59;55.84;99380.52;263266;1089;22965;-73
2021/06/14 08:55:15;;;;;;;7.30;4.13;;;;;;;17.68;55.47;99380.50;263114;1089;22783;-72
2021/06/14 09:01:28;;;;;;;7.50;3.70;;;;;;;17.84;56.15;99375.36;263018;1089;22842;-72
2021/06/14 09:14:00;;;;;;;;;;;;;;;;;;;;;
2021/06/14 09:20:40;;;;;;;7.48;3.78;;;;;;;17.91;55.35;99392.77;263006;1089;26366;-71
2021/06/14 09:34:36;;;;;;;6.15;4.80;;;;;;;18.53;53.75;99393.35;262411;1090;22899;-71
2021/06/14 09:47:49;;;;;;;;;;;;;;;;;;;;;
2021/06/14 09:53:58;;;;;;;;;;;;;;;;;;;;;
2021/06/14 10:07:08;;;;;;;5.55;3.80;;;;;;;19.01;51.59;99375.06;264130;1088;25957;-70
2021/06/14 10:13:24;;;;;;;;;;;;;;;;;;;;;
2021/06/14 10:19:47;;;;;;;6.10;4.55;;;;;;;19.30;51.38;99355.20;262980;1089;26289;-71
2021/06/14 10:25:32;;;;;;;6.50;3.60;;;;;;;19.44;50.93;99354.13;263119;1090;27699;-71
2021/06/14 10:31:26;;;;;;;5.55;3.45;;;;;;;19.46;49.84;99354.58;262704;1090;22802;-71
2021/06/14 10:37:39;;;;;;;;;;;;;;;;;;;;;
2021/06/14 10:43:26;;;;;;;4.13;3.30;;;;;;;19.81;49.73;99335.24;262597;1090;22934;-71
2021/06/14 10:49:22;;;;;;;5.13;2.78;;;;;;;20.06;49.09;99340.73;262038;1090;26274;-72
2021/06/14 10:55:06;;;;;;;4.43;3.00;;;;;;;20.36;48.35;99338.61;263015;1090;22793;-72
2021/06/14 11:01:31;;;;;;;4.15;3.50;;;;;;;20.57;48.40;99332.27;263082;1089;24320;-73
2021/06/14 11:07:54;;;;;;;5.33;3.73;;;;;;;20.95;46.90;99326.42;263141;1088;22749;-72
2021/06/14 11:13:26;;;;;;;3.78;2.63;;;;;;;21.12;46.71;99311.73;262891;1090;22907;-72
2021/06/14 11:18:53;;;;;;;4.67;2.73;;;;;;;21.12;46.39;99302.78;263148;1089;23372;-72
2021/06/14 11:31:52;;;;;;;;;;;;;;;;;;;;;
2021/06/14 11:37:45;;;;;;;3.75;2.60;;;;;;;21.27;45.41;99293.86;262836;1089;25992;-71
2021/06/14 11:42:55;;;;;;;4.35;2.30;;;;;;;21.59;46.41;99291.23;263125;1088;22829;-70
2021/06/14 11:48:52;;;;;;;4.43;2.43;;;;;;;21.73;44.49;99290.00;262670;1090;22795;-71
2021/06/14 12:01:51;;;;;;;4.08;2.38;;;;;;;21.65;44.02;99283.59;262645;1090;22809;-71
2021/06/14 12:07:42;;;;;;;3.95;3.00;;;;;;;21.79;42.75;99285.89;262462;1088;22883;-71
2021/06/14 12:13:41;;;;;;;;;;;;;;;;;;;;;
2021/06/14 12:19:24;;;;;;;3.10;2.30;;;;;;;21.75;42.83;99274.89;262911;1090;23057;-71
2021/06/14 12:24:52;;;;;;;;;;;;;;;21.72;43.15;99272.09;262346;1090;23635;-71
2021/06/14 12:31:13;;;;;;;3.33;2.48;;;;;;;22.14;43.07;99260.63;262363;1090;21460;-72
2021/06/14 12:37:21;;;;;;;;;;;;;;;;;;;;;
2021/06/14 12:42:42;;;;;;;4.93;2.37;;;;;;;22.56;42.79;99257.30;262702;1090;23391;-71
2021/06/14 12:48:19;;;;;;;3.03;2.00;;;;;;;22.82;42.20;99248.50;262993;1089;22921;-72
2021/06/14 12:53:57;;;;;;;3.25;2.60;;;;;;;23.02;42.80;99241.08;262278;1088;22808;-72
2021/06/14 12:59:08;;;;;;;3.45;2.23;;;;;;;23.14;41.71;99234.70;262815;1090;22782;-72
2021/06/14 13:04:31;;;;;;;2.50;2.25;;;;;;;23.15;39.64;99224.56;263047;1090;22860;-71
2021/06/14 13:10:04;;;;;;;;;;;;;;;;;;;;;
2021/06/14 13:15:16;;;;;;;3.63;2.68;;;;;;;22.76;41.13;99221.83;262223;1089;22850;-72
2021/06/14 13:20:23;;;;;;;3.03;2.55;;;;;;;22.69;40.93;99212.34;263235;1090;25978;-72
2021/06/14 13:25:27;;;;;;;3.30;2.20;;;;;;;22.77;41.26;99213.27;262911;1090;25896;-72
2021/06/14 13:30:47;;;;;;;3.15;2.50;;;;;;;22.84;40.16;99207.16;262773;1090;22930;-72
2021/06/14 13:35:59;;;;;;;2.48;2.10;;;;;;;22.88;40.71;99206.08;263155;1088;24074;-72
2021/06/14 13:41:32;;;;;;;2.13;1.78;;;;;;;23.03;40.10;99198.95;262906;1090;22772;-72
2021/06/14 13:47:25;;;;;;;4.03;2.53;;;;;;;23.12;40.52;99185.08;263065;1089;22794;-72
2021/06/14 13:53:26;;;;;;;9.30;7.98;;;;;;;23.17;39.67;99189.48;263102;1089;24371;-72
2021/06/14 13:59:29;;;;;;;3.30;2.53;;;;;;;22.90;38.99;99179.20;262280;1090;24326;-71
2021/06/14 14:04:42;;;;;;;3.15;2.38;;;;;;;22.80;40.18;99173.53;263007;1090;22815;-72
2021/06/14 14:10:20;;;;;;;3.55;2.33;;;;;;;22.52;39.46;99167.13;263592;1090;22950;-71
2021/06/14 14:16:33;;;;;;;3.43;2.78;;;;;;;22.54;40.01;99155.88;262745;1090;26328;-72
2021/06/14 14:22:42;;;;;;;;;;;;;;;;;;;;;
2021/06/14 14:28:12;;;;;;;3.10;2.30;;;;;;;22.27;40.02;99147.48;262290;1090;26407;-71
2021/06/14 14:33:27;;;;;;;3.35;3.05;;;;;;;22.31;40.48;99150.30;263357;1090;22791;-71
2021/06/14 14:39:24;;;;;;;5.30;3.60;;;;;;;22.48;39.78;99154.56;263138;1089;23413;-71
2021/06/14 14:45:24;;;;;;;6.18;4.90;;;;;;;22.62;39.95;99146.66;263056;1089;22833;-71
2021/06/14 14:50:40;;;;;;;5.97;3.23;;;;;;;22.72;40.05;99151.55;262257;1088;22791;-70
2021/06/14 14:55:49;;;;;;;3.80;2.38;;;;;;;22.48;39.61;99140.92;262888;1090;22861;-72
2021/06/14 15:01:26;;;;;;;3.57;2.50;;;;;;;22.10;40.16;99137.77;263146;1089;26030;-70
2021/06/14 15:07:11;;;;;;;;;;;;;;;;;;;;;
2021/06/14 15:14:07;;;;;;;;;;;;;;;;;;;;;
2021/06/14 15:20:17;;;;;;;4.53;3.00;;;;;;;21.92;40.36;99121.02;261812;1090;26261;-71
2021/06/14 15:26:16;;;;;;;7.15;4.93;;;;;;;22.01;40.26;99132.53;262754;1090;22824;-70
2021/06/14 15:31:38;;;;;;;2.63;2.40;;;;;;;21.77;40.58;99122.66;262352;1090;22818;-72
2021/06/14 15:37:02;;;;;;;3.58;2.43;;;;;;;21.76;41.14;99117.56;262354;1089;22809;-72
2021/06/14 15:42:35;;;;;;;4.30;3.40;;;;;;;21.82;40.87;99100.55;262411;1090;25958;-71
2021/06/14 15:48:23;;;;;;;;;;;;;;;;;;;;;
2021/06/14 15:54:14;;;;;;;3.90;2.30;;;;;;;21.94;40.47;99101.59;262678;1090;22777;-71
2021/06/14 15:59:22;;;;;;;4.03;2.88;;;;;;;21.92;40.96;99101.14;261891;1090;25960;-72
2021/06/14 16:04:32;;;;;;;2.98;2.38;;;;;;;21.90;40.61;99089.81;262717;1088;25033;-74
2021/06/14 16:09:55;;;;;;;2.73;2.27;;;;;;;21.83;39.99;99095.90;262493;1090;22869;-70
2021/06/14 16:15:04;;;;;;;3.38;2.45;;;;;;;21.79;41.07;99087.63;262799;1090;23583;-73
2021/06/14 16:20:31;;;;;;;;;;;;;;;;;;;;;
2021/06/14 16:27:03;;;;;;;3.13;2.65;;;;;;;21.76;41.00;99087.56;262692;1089;24310;-71
2021/06/14 16:33:50;;;;;;;5.13;2.88;;;;;;;21.72;40.94;99089.42;262781;1089;26277;-71
2021/06/14 16:40:37;;;;;;;3.73;2.80;;;;;;;21.79;41.43;99073.22;262871;1090;22943;-70
2021/06/14 16:47:29;;;;;;;7.33;5.28;;;;;;;21.75;41.23;99089.48;262535;1090;26314;-72
2021/06/14 16:53:39;;;;;;;3.68;2.73;;;;;;;21.70;41.59;99076.15;261829;1090;22834;-71
2021/06/14 17:06:53;;;;;;;;;;;;;;;;;;;;;
2021/06/14 17:12:41;;;;;;;3.93;2.53;;;;;;;24.31;40.80;99082.94;261763;1090;22785;-71
2021/06/14 17:18:10;;;;;;;3.95;2.68;;;;;;;25.76;39.68;99085.81;262737;1090;25998;-71
2021/06/14 17:23:54;;;;;;;;;;;;;;;;;;;;;
2021/06/14 17:29:47;;;;;;;3.10;2.75;;;;;;;27.95;36.38;99081.85;262928;1089;24323;-71
2021/06/14 17:35:34;;;;;;;3.95;2.80;;;;;;;28.55;35.25;99084.73;262753;1090;22864;-71
2021/06/14 17:41:21;;;;;;;3.90;3.60;;;;;;;27.76;34.56;99087.80;262250;1090;22976;-71
2021/06/14 17:47:52;;;;;;;;;;;;;;;;;;;;;
2021/06/14 17:54:15;;;;;;;3.38;3.08;;;;;;;24.69;35.91;99072.81;262529;1090;22864;-71
2021/06/14 18:00:20;;;;;;;5.00;3.65;;;;;;;23.20;37.06;99072.02;262926;1090;23414;-72
2021/06/14 18:06:34;;;;;;;3.70;3.00;;;;;;;22.01;38.71;99069.80;263047;1088;22782;-70
2021/06/14 18:12:39;;;;;;;5.53;2.90;;;;;;;21.20;40.29;99071.07;262107;1090;22869;-71
2021/06/14 18:18:38;;;;;;;;;;;;;;;;;;;;;
2021/06/14 18:24:53;;;;;;;4.17;2.93;;;;;;;19.92;42.46;99075.43;262949;1090;22935;-70
2021/06/14 18:37:56;;;;;;;4.08;3.05;;;;;;;18.97;44.65;99079.05;262818;1089;22843;-71
2021/06/14 18:44:27;;;;;;;;;;;;;;;;;;;;;
2021/06/14 18:51:25;;;;;;;;;;;;;;;;;;;;;
2021/06/14 18:57:39;;;;;;;;;;;;;;;;;;;;;
2021/06/14 19:03:31;;;;;;;4.35;2.85;;;;;;;17.64;48.54;99089.69;262177;1090;22803;-71
2021/06/14 19:10:01;;;;;;;5.25;2.80;;;;;;;17.31;49.62;99093.05;262881;1090;22954;-71
2021/06/14 19:16:20;;;;;;;;;;;;;;;;;;;;;
2021/06/14 19:23:08;;;;;;;;;;;;;;;;;;;;;
2021/06/14 19:29:33;;;;;;;4.95;3.15;;;;;;;16.46;51.61;99121.54;261891;1092;24349;-71
2021/06/14 19:35:27;;;;;;;;;;;;;;;;;;;;;
2021/06/14 19:41:33;;;;;;;;;;;;;;;;;;;;;
2021/06/14 19:54:13;;;;;;;;;;;;;;;;;;;;;
2021/06/14 20:00:14;;;;;;;;;;;;;;;;;;;;;
2021/06/14 20:06:41;;;;;;;;;;;;;;;;;;;;;
2021/06/14 20:12:29;;;;;;;;;;;;;;;;;;;;;
2021/06/14 20:19:05;;;;;;;;;;;;;;;;;;;;;
2021/06/14 20:25:47;;;;;;;6.90;5.55;;;;;;;14.96;57.47;99123.02;261719;1090;22978;-71
2021/06/14 20:38:28;;;;;;;6.00;4.33;;;;;;;14.67;58.48;99124.25;262053;1089;22946;-71
2021/06/14 20:44:08;;;;;;;7.10;5.10;;;;;;;14.62;59.34;99124.39;261896;1090;22882;-72
2021/06/14 20:49:51;;;;;;;8.40;5.63;;;;;;;14.48;59.92;99121.73;262519;1090;22809;-72
2021/06/14 21:02:36;;;;;;;;;;;;;;;;;;;;;
2021/06/14 21:15:36;;;;;;;8.73;5.87;;;;;;;13.95;62.53;99130.43;262532;1089;22803;-73
2021/06/14 21:29:33;;;;;;;8.85;5.50;;;;;;;13.69;63.65;99120.20;262564;1090;22771;-71
2021/06/14 21:36:09;;;;;;;8.95;5.50;;;;;;;13.61;64.13;99124.41;262570;1089;25895;-71
2021/06/14 21:42:27;;;;;;;;;;;;;;;;;;;;;
2021/06/14 21:48:43;;;;;;;7.60;5.95;;;;;;;13.42;65.02;99116.42;261323;1090;25874;-70
2021/06/14 21:55:09;;;;;;;;;;;;;;;;;;;;;
2021/06/14 22:01:32;;;;;;;;;;;;;;;;;;;;;
2021/06/14 22:07:03;;;;;;;9.25;5.60;;;;;;;13.17;66.64;99110.38;262470;1089;22816;-70
2021/06/14 22:13:12;;;;;;;;;;;;;;;;;;;;;
2021/06/14 22:19:51;;;;;;;8.93;6.00;;;;;;;13.10;67.04;99101.13;262645;1089;22779;-71
2021/06/14 22:25:55;;;;;;;;;;;;;;;;;;;;;
2021/06/14 22:32:30;;;;;;;8.47;5.70;;;;;;;12.87;68.34;99102.86;262723;1090;25871;-72
2021/06/14 22:44:47;;;;;;;;;;;;;;;;;;;;;
2021/06/14 22:51:17;;;;;;;10.40;7.30;;;;;;;12.60;69.10;99097.10;261861;1090;22860;-72
2021/06/14 22:57:54;;;;;;;10.40;7.00;;;;;;;12.48;69.04;99096.78;261868;1090;26015;-72
2021/06/14 23:04:29;;;;;;;;;;;;;;;;;;;;;
2021/06/14 23:11:14;;;;;;;;;;;;;;;;;;;;;
2021/06/14 23:23:09;;;;;;;;;;;;;;;;;;;;;
2021/06/14 23:29:41;;;;;;;;;;;;;;;;;;;;;
2021/06/14 23:42:32;;;;;;;12.30;8.57;;;;;;;11.62;71.79;99089.60;261877;1089;22951;-71
2021/06/14 23:48:45;;;;;;;14.83;9.20;;;;;;;11.57;72.00;99095.02;262731;1089;24499;-71
2021/06/14 23:54:32;;;;;;;14.85;9.15;;;;;;;11.48;72.33;99094.86;262456;1090;28651;-71
